sensor_id;sensor_type;location;lat;lon;timestamp;P1;durP1;ratioP1;P2;durP2;ratioP2
52724;SDS011;38621;52.830;6.914;2024-01-27T00:01:15;14.50;;;10.70;;
52724;SDS011;38621;52.830;6.914;2024-01-27T00:03:41;11.23;;;10.15;;
52724;SDS011;38621;52.830;6.914;2024-01-27T00:06:06;11.57;;;10.63;;
52724;SDS011;38621;52.830;6.914;2024-01-27T00:08:32;12.07;;;10.98;;
52724;SDS011;38621;52.830;6.914;2024-01-27T00:10:58;11.23;;;10.38;;
52724;SDS011;38621;52.830;6.914;2024-01-27T00:13:23;12.10;;;10.57;;
52724;SDS011;38621;52.830;6.914;2024-01-27T00:15:50;11.82;;;10.40;;
52724;SDS011;38621;52.830;6.914;2024-01-27T00:18:16;11.70;;;10.68;;
52724;SDS011;38621;52.830;6.914;2024-01-27T00:20:42;11.52;;;10.65;;
52724;SDS011;38621;52.830;6.914;2024-01-27T00:23:08;11.25;;;10.52;;
52724;SDS011;38621;52.830;6.914;2024-01-27T00:25:33;12.23;;;10.95;;
52724;SDS011;38621;52.830;6.914;2024-01-27T00:27:59;11.43;;;9.90;;
52724;SDS011;38621;52.830;6.914;2024-01-27T00:30:25;11.02;;;9.65;;
52724;SDS011;38621;52.830;6.914;2024-01-27T00:32:51;10.45;;;9.70;;
52724;SDS011;38621;52.830;6.914;2024-01-27T00:35:17;13.82;;;11.82;;
52724;SDS011;38621;52.830;6.914;2024-01-27T00:37:43;12.35;;;10.63;;
52724;SDS011;38621;52.830;6.914;2024-01-27T00:40:11;15.00;;;10.32;;
52724;SDS011;38621;52.830;6.914;2024-01-27T00:42:37;11.90;;;10.38;;
52724;SDS011;38621;52.830;6.914;2024-01-27T00:45:03;13.63;;;10.15;;
52724;SDS011;38621;52.830;6.914;2024-01-27T00:47:30;11.55;;;9.98;;
52724;SDS011;38621;52.830;6.914;2024-01-27T00:49:56;10.93;;;9.90;;
52724;SDS011;38621;52.830;6.914;2024-01-27T00:52:22;11.32;;;10.23;;
52724;SDS011;38621;52.830;6.914;2024-01-27T00:54:48;11.35;;;9.55;;
52724;SDS011;38621;52.830;6.914;2024-01-27T00:57:13;11.13;;;9.50;;
52724;SDS011;38621;52.830;6.914;2024-01-27T00:59:39;9.85;;;9.23;;
52724;SDS011;38621;52.830;6.914;2024-01-27T01:02:06;10.27;;;9.68;;
52724;SDS011;38621;52.830;6.914;2024-01-27T01:04:32;16.27;;;10.18;;
52724;SDS011;38621;52.830;6.914;2024-01-27T01:06:58;12.85;;;10.10;;
52724;SDS011;38621;52.830;6.914;2024-01-27T01:09:24;10.75;;;9.80;;
52724;SDS011;38621;52.830;6.914;2024-01-27T01:11:49;11.35;;;10.13;;
52724;SDS011;38621;52.830;6.914;2024-01-27T01:14:15;10.45;;;9.65;;
52724;SDS011;38621;52.830;6.914;2024-01-27T01:16:41;13.73;;;10.18;;
52724;SDS011;38621;52.830;6.914;2024-01-27T01:19:07;10.02;;;9.05;;
52724;SDS011;38621;52.830;6.914;2024-01-27T01:21:33;10.85;;;9.95;;
52724;SDS011;38621;52.830;6.914;2024-01-27T01:23:59;10.43;;;9.73;;
52724;SDS011;38621;52.830;6.914;2024-01-27T01:26:25;10.85;;;10.00;;
52724;SDS011;38621;52.830;6.914;2024-01-27T01:28:51;10.93;;;9.95;;
52724;SDS011;38621;52.830;6.914;2024-01-27T01:31:16;10.63;;;9.65;;
52724;SDS011;38621;52.830;6.914;2024-01-27T01:33:42;11.65;;;10.52;;
52724;SDS011;38621;52.830;6.914;2024-01-27T01:36:08;11.68;;;10.63;;
52724;SDS011;38621;52.830;6.914;2024-01-27T01:38:34;12.40;;;11.05;;
52724;SDS011;38621;52.830;6.914;2024-01-27T01:41:00;12.10;;;11.15;;
52724;SDS011;38621;52.830;6.914;2024-01-27T01:43:26;10.25;;;9.38;;
52724;SDS011;38621;52.830;6.914;2024-01-27T01:45:52;11.45;;;10.63;;
52724;SDS011;38621;52.830;6.914;2024-01-27T01:48:20;10.80;;;9.93;;
52724;SDS011;38621;52.830;6.914;2024-01-27T01:50:46;12.10;;;10.90;;
52724;SDS011;38621;52.830;6.914;2024-01-27T01:53:12;11.05;;;10.02;;
52724;SDS011;38621;52.830;6.914;2024-01-27T01:55:38;11.50;;;10.63;;
52724;SDS011;38621;52.830;6.914;2024-01-27T01:58:05;11.55;;;10.45;;
52724;SDS011;38621;52.830;6.914;2024-01-27T02:00:31;11.88;;;10.63;;
52724;SDS011;38621;52.830;6.914;2024-01-27T02:02:57;10.93;;;10.20;;
52724;SDS011;38621;52.830;6.914;2024-01-27T02:05:23;11.02;;;10.30;;
52724;SDS011;38621;52.830;6.914;2024-01-27T02:07:49;14.18;;;10.32;;
52724;SDS011;38621;52.830;6.914;2024-01-27T02:10:16;11.60;;;10.60;;
52724;SDS011;38621;52.830;6.914;2024-01-27T02:12:42;12.10;;;10.93;;
52724;SDS011;38621;52.830;6.914;2024-01-27T02:15:09;12.55;;;10.95;;
52724;SDS011;38621;52.830;6.914;2024-01-27T02:17:37;10.93;;;10.13;;
52724;SDS011;38621;52.830;6.914;2024-01-27T02:20:03;12.20;;;10.93;;
52724;SDS011;38621;52.830;6.914;2024-01-27T02:22:30;10.98;;;10.18;;
52724;SDS011;38621;52.830;6.914;2024-01-27T02:24:55;12.35;;;11.10;;
52724;SDS011;38621;52.830;6.914;2024-01-27T02:27:21;12.60;;;11.13;;
52724;SDS011;38621;52.830;6.914;2024-01-27T02:29:47;11.02;;;10.18;;
52724;SDS011;38621;52.830;6.914;2024-01-27T02:32:12;11.48;;;10.45;;
52724;SDS011;38621;52.830;6.914;2024-01-27T02:34:38;13.38;;;12.13;;
52724;SDS011;38621;52.830;6.914;2024-01-27T02:37:04;12.32;;;11.50;;
52724;SDS011;38621;52.830;6.914;2024-01-27T02:39:30;12.48;;;11.25;;
52724;SDS011;38621;52.830;6.914;2024-01-27T02:41:56;11.88;;;10.57;;
52724;SDS011;38621;52.830;6.914;2024-01-27T02:44:22;11.82;;;11.13;;
52724;SDS011;38621;52.830;6.914;2024-01-27T02:46:47;12.25;;;11.45;;
52724;SDS011;38621;52.830;6.914;2024-01-27T02:49:13;11.95;;;11.05;;
52724;SDS011;38621;52.830;6.914;2024-01-27T02:51:39;12.80;;;10.95;;
52724;SDS011;38621;52.830;6.914;2024-01-27T02:54:05;11.90;;;11.02;;
52724;SDS011;38621;52.830;6.914;2024-01-27T02:56:30;12.13;;;11.10;;
52724;SDS011;38621;52.830;6.914;2024-01-27T02:58:56;13.40;;;12.05;;
52724;SDS011;38621;52.830;6.914;2024-01-27T03:01:22;14.65;;;11.63;;
52724;SDS011;38621;52.830;6.914;2024-01-27T03:03:47;12.82;;;11.65;;
52724;SDS011;38621;52.830;6.914;2024-01-27T03:06:13;12.38;;;11.32;;
52724;SDS011;38621;52.830;6.914;2024-01-27T03:08:39;12.70;;;11.52;;
52724;SDS011;38621;52.830;6.914;2024-01-27T03:11:04;12.48;;;11.32;;
52724;SDS011;38621;52.830;6.914;2024-01-27T03:13:30;14.25;;;12.88;;
52724;SDS011;38621;52.830;6.914;2024-01-27T03:15:56;12.25;;;11.25;;
52724;SDS011;38621;52.830;6.914;2024-01-27T03:18:21;12.88;;;11.77;;
52724;SDS011;38621;52.830;6.914;2024-01-27T03:20:47;11.35;;;10.45;;
52724;SDS011;38621;52.830;6.914;2024-01-27T03:23:13;11.60;;;10.70;;
52724;SDS011;38621;52.830;6.914;2024-01-27T03:25:38;11.85;;;10.65;;
52724;SDS011;38621;52.830;6.914;2024-01-27T03:28:04;15.43;;;11.20;;
52724;SDS011;38621;52.830;6.914;2024-01-27T03:30:30;12.38;;;11.10;;
52724;SDS011;38621;52.830;6.914;2024-01-27T03:32:56;12.77;;;11.70;;
52724;SDS011;38621;52.830;6.914;2024-01-27T03:35:21;12.30;;;11.45;;
52724;SDS011;38621;52.830;6.914;2024-01-27T03:37:47;14.95;;;12.98;;
52724;SDS011;38621;52.830;6.914;2024-01-27T03:40:14;13.57;;;12.27;;
52724;SDS011;38621;52.830;6.914;2024-01-27T03:42:40;14.57;;;13.30;;
52724;SDS011;38621;52.830;6.914;2024-01-27T03:45:05;12.80;;;11.68;;
52724;SDS011;38621;52.830;6.914;2024-01-27T03:47:31;14.10;;;13.02;;
52724;SDS011;38621;52.830;6.914;2024-01-27T03:49:57;12.38;;;11.63;;
52724;SDS011;38621;52.830;6.914;2024-01-27T03:52:23;13.57;;;12.38;;
52724;SDS011;38621;52.830;6.914;2024-01-27T03:54:49;13.00;;;12.07;;
52724;SDS011;38621;52.830;6.914;2024-01-27T03:57:14;15.52;;;12.75;;
52724;SDS011;38621;52.830;6.914;2024-01-27T03:59:41;13.63;;;12.27;;
52724;SDS011;38621;52.830;6.914;2024-01-27T04:02:07;14.30;;;13.20;;
52724;SDS011;38621;52.830;6.914;2024-01-27T04:04:32;14.18;;;13.20;;
52724;SDS011;38621;52.830;6.914;2024-01-27T04:06:58;14.48;;;13.32;;
52724;SDS011;38621;52.830;6.914;2024-01-27T04:09:24;16.65;;;15.10;;
52724;SDS011;38621;52.830;6.914;2024-01-27T04:11:49;13.95;;;12.95;;
52724;SDS011;38621;52.830;6.914;2024-01-27T04:14:16;14.55;;;13.48;;
52724;SDS011;38621;52.830;6.914;2024-01-27T04:16:41;14.63;;;12.55;;
52724;SDS011;38621;52.830;6.914;2024-01-27T04:19:07;13.45;;;12.43;;
52724;SDS011;38621;52.830;6.914;2024-01-27T04:21:33;14.38;;;12.52;;
52724;SDS011;38621;52.830;6.914;2024-01-27T04:23:58;13.20;;;12.00;;
52724;SDS011;38621;52.830;6.914;2024-01-27T04:26:24;13.75;;;12.63;;
52724;SDS011;38621;52.830;6.914;2024-01-27T04:28:50;13.68;;;12.60;;
52724;SDS011;38621;52.830;6.914;2024-01-27T04:31:15;14.15;;;13.00;;
52724;SDS011;38621;52.830;6.914;2024-01-27T04:33:41;17.05;;;13.27;;
52724;SDS011;38621;52.830;6.914;2024-01-27T04:36:07;14.48;;;13.15;;
52724;SDS011;38621;52.830;6.914;2024-01-27T04:38:33;14.40;;;12.98;;
52724;SDS011;38621;52.830;6.914;2024-01-27T04:40:59;14.10;;;12.55;;
52724;SDS011;38621;52.830;6.914;2024-01-27T04:43:26;14.25;;;13.00;;
52724;SDS011;38621;52.830;6.914;2024-01-27T04:45:51;15.38;;;13.93;;
52724;SDS011;38621;52.830;6.914;2024-01-27T04:48:17;14.23;;;13.10;;
52724;SDS011;38621;52.830;6.914;2024-01-27T04:50:43;15.60;;;12.50;;
52724;SDS011;38621;52.830;6.914;2024-01-27T04:53:08;14.23;;;12.93;;
52724;SDS011;38621;52.830;6.914;2024-01-27T04:55:34;15.02;;;13.50;;
52724;SDS011;38621;52.830;6.914;2024-01-27T04:58:00;14.07;;;12.77;;
52724;SDS011;38621;52.830;6.914;2024-01-27T05:00:25;16.15;;;14.60;;
52724;SDS011;38621;52.830;6.914;2024-01-27T05:02:53;14.80;;;13.43;;
52724;SDS011;38621;52.830;6.914;2024-01-27T05:05:19;14.48;;;13.52;;
52724;SDS011;38621;52.830;6.914;2024-01-27T05:07:44;18.90;;;13.25;;
52724;SDS011;38621;52.830;6.914;2024-01-27T05:10:10;14.20;;;13.18;;
52724;SDS011;38621;52.830;6.914;2024-01-27T05:12:37;15.48;;;13.93;;
52724;SDS011;38621;52.830;6.914;2024-01-27T05:15:03;15.95;;;14.50;;
52724;SDS011;38621;52.830;6.914;2024-01-27T05:17:29;14.52;;;13.52;;
52724;SDS011;38621;52.830;6.914;2024-01-27T05:19:55;14.52;;;13.23;;
52724;SDS011;38621;52.830;6.914;2024-01-27T05:22:22;14.48;;;13.45;;
52724;SDS011;38621;52.830;6.914;2024-01-27T05:24:48;14.43;;;13.45;;
52724;SDS011;38621;52.830;6.914;2024-01-27T05:27:14;15.70;;;14.07;;
52724;SDS011;38621;52.830;6.914;2024-01-27T05:29:39;14.10;;;13.00;;
52724;SDS011;38621;52.830;6.914;2024-01-27T05:32:05;13.60;;;12.35;;
52724;SDS011;38621;52.830;6.914;2024-01-27T05:34:31;12.82;;;11.93;;
52724;SDS011;38621;52.830;6.914;2024-01-27T05:36:56;15.00;;;13.60;;
52724;SDS011;38621;52.830;6.914;2024-01-27T05:39:22;14.02;;;12.93;;
52724;SDS011;38621;52.830;6.914;2024-01-27T05:41:48;15.07;;;13.93;;
52724;SDS011;38621;52.830;6.914;2024-01-27T05:44:14;16.35;;;14.95;;
52724;SDS011;38621;52.830;6.914;2024-01-27T05:46:39;15.35;;;13.90;;
52724;SDS011;38621;52.830;6.914;2024-01-27T05:49:05;14.48;;;13.13;;
52724;SDS011;38621;52.830;6.914;2024-01-27T05:51:30;15.13;;;13.93;;
52724;SDS011;38621;52.830;6.914;2024-01-27T05:53:56;14.00;;;13.23;;
52724;SDS011;38621;52.830;6.914;2024-01-27T05:56:22;14.98;;;13.85;;
52724;SDS011;38621;52.830;6.914;2024-01-27T05:58:48;14.32;;;13.40;;
52724;SDS011;38621;52.830;6.914;2024-01-27T06:01:14;14.75;;;13.52;;
52724;SDS011;38621;52.830;6.914;2024-01-27T06:03:43;16.17;;;14.48;;
52724;SDS011;38621;52.830;6.914;2024-01-27T06:06:09;15.82;;;13.60;;
52724;SDS011;38621;52.830;6.914;2024-01-27T06:08:35;15.35;;;14.13;;
52724;SDS011;38621;52.830;6.914;2024-01-27T06:11:01;14.68;;;13.60;;
52724;SDS011;38621;52.830;6.914;2024-01-27T06:13:28;14.85;;;13.93;;
52724;SDS011;38621;52.830;6.914;2024-01-27T06:15:53;16.45;;;14.82;;
52724;SDS011;38621;52.830;6.914;2024-01-27T06:18:19;17.88;;;16.33;;
52724;SDS011;38621;52.830;6.914;2024-01-27T06:20:45;17.23;;;15.50;;
52724;SDS011;38621;52.830;6.914;2024-01-27T06:23:11;17.20;;;15.50;;
52724;SDS011;38621;52.830;6.914;2024-01-27T06:25:37;15.88;;;14.80;;
52724;SDS011;38621;52.830;6.914;2024-01-27T06:28:02;19.30;;;17.92;;
52724;SDS011;38621;52.830;6.914;2024-01-27T06:30:28;17.50;;;15.80;;
52724;SDS011;38621;52.830;6.914;2024-01-27T06:32:54;16.58;;;15.38;;
52724;SDS011;38621;52.830;6.914;2024-01-27T06:35:20;18.23;;;16.60;;
52724;SDS011;38621;52.830;6.914;2024-01-27T06:37:45;18.40;;;16.90;;
52724;SDS011;38621;52.830;6.914;2024-01-27T06:40:12;18.60;;;17.05;;
52724;SDS011;38621;52.830;6.914;2024-01-27T06:42:38;17.17;;;16.20;;
52724;SDS011;38621;52.830;6.914;2024-01-27T06:45:04;17.75;;;16.45;;
52724;SDS011;38621;52.830;6.914;2024-01-27T06:47:30;19.40;;;17.45;;
52724;SDS011;38621;52.830;6.914;2024-01-27T06:49:55;18.75;;;17.15;;
52724;SDS011;38621;52.830;6.914;2024-01-27T06:52:21;18.60;;;17.15;;
52724;SDS011;38621;52.830;6.914;2024-01-27T06:54:47;18.88;;;17.48;;
52724;SDS011;38621;52.830;6.914;2024-01-27T06:57:19;17.92;;;16.73;;
52724;SDS011;38621;52.830;6.914;2024-01-27T06:59:46;20.02;;;18.40;;
52724;SDS011;38621;52.830;6.914;2024-01-27T07:02:27;20.97;;;17.87;;
52724;SDS011;38621;52.830;6.914;2024-01-27T07:04:53;20.25;;;18.98;;
52724;SDS011;38621;52.830;6.914;2024-01-27T07:07:21;18.92;;;17.65;;
52724;SDS011;38621;52.830;6.914;2024-01-27T07:09:50;18.80;;;17.45;;
52724;SDS011;38621;52.830;6.914;2024-01-27T07:12:16;18.88;;;17.45;;
52724;SDS011;38621;52.830;6.914;2024-01-27T07:14:41;20.15;;;18.70;;
52724;SDS011;38621;52.830;6.914;2024-01-27T07:17:07;18.85;;;17.50;;
52724;SDS011;38621;52.830;6.914;2024-01-27T07:19:33;19.67;;;18.15;;
52724;SDS011;38621;52.830;6.914;2024-01-27T07:21:59;19.15;;;16.95;;
52724;SDS011;38621;52.830;6.914;2024-01-27T07:24:25;18.33;;;16.83;;
52724;SDS011;38621;52.830;6.914;2024-01-27T07:26:51;19.30;;;17.63;;
52724;SDS011;38621;52.830;6.914;2024-01-27T07:29:17;19.13;;;17.27;;
52724;SDS011;38621;52.830;6.914;2024-01-27T07:31:43;18.80;;;17.05;;
52724;SDS011;38621;52.830;6.914;2024-01-27T07:34:09;17.52;;;16.00;;
52724;SDS011;38621;52.830;6.914;2024-01-27T07:36:34;17.75;;;16.13;;
52724;SDS011;38621;52.830;6.914;2024-01-27T07:39:00;18.38;;;16.65;;
52724;SDS011;38621;52.830;6.914;2024-01-27T07:41:26;19.98;;;17.98;;
52724;SDS011;38621;52.830;6.914;2024-01-27T07:43:53;19.55;;;18.00;;
52724;SDS011;38621;52.830;6.914;2024-01-27T07:46:20;20.10;;;18.08;;
52724;SDS011;38621;52.830;6.914;2024-01-27T07:48:48;18.90;;;17.27;;
52724;SDS011;38621;52.830;6.914;2024-01-27T07:51:14;20.00;;;18.50;;
52724;SDS011;38621;52.830;6.914;2024-01-27T07:53:40;21.08;;;19.13;;
52724;SDS011;38621;52.830;6.914;2024-01-27T07:56:07;21.05;;;19.15;;
52724;SDS011;38621;52.830;6.914;2024-01-27T07:58:33;21.63;;;19.58;;
52724;SDS011;38621;52.830;6.914;2024-01-27T08:00:59;20.95;;;19.52;;
52724;SDS011;38621;52.830;6.914;2024-01-27T08:03:25;21.20;;;19.60;;
52724;SDS011;38621;52.830;6.914;2024-01-27T08:05:51;21.17;;;19.17;;
52724;SDS011;38621;52.830;6.914;2024-01-27T08:08:16;22.15;;;19.83;;
52724;SDS011;38621;52.830;6.914;2024-01-27T08:10:42;24.17;;;19.90;;
52724;SDS011;38621;52.830;6.914;2024-01-27T08:13:09;22.15;;;20.17;;
52724;SDS011;38621;52.830;6.914;2024-01-27T08:15:34;21.95;;;20.35;;
52724;SDS011;38621;52.830;6.914;2024-01-27T08:18:00;20.70;;;18.63;;
52724;SDS011;38621;52.830;6.914;2024-01-27T08:20:26;21.95;;;19.92;;
52724;SDS011;38621;52.830;6.914;2024-01-27T08:22:51;22.35;;;20.30;;
52724;SDS011;38621;52.830;6.914;2024-01-27T08:25:17;21.70;;;19.70;;
52724;SDS011;38621;52.830;6.914;2024-01-27T08:27:43;20.83;;;19.25;;
52724;SDS011;38621;52.830;6.914;2024-01-27T08:30:09;21.63;;;20.00;;
52724;SDS011;38621;52.830;6.914;2024-01-27T08:32:35;21.88;;;19.85;;
52724;SDS011;38621;52.830;6.914;2024-01-27T08:35:01;22.25;;;20.20;;
52724;SDS011;38621;52.830;6.914;2024-01-27T08:37:27;21.38;;;19.50;;
52724;SDS011;38621;52.830;6.914;2024-01-27T08:39:53;21.30;;;19.35;;
52724;SDS011;38621;52.830;6.914;2024-01-27T08:42:18;21.33;;;19.75;;
52724;SDS011;38621;52.830;6.914;2024-01-27T08:44:44;23.35;;;21.58;;
52724;SDS011;38621;52.830;6.914;2024-01-27T08:47:10;22.13;;;20.23;;
52724;SDS011;38621;52.830;6.914;2024-01-27T08:49:36;21.88;;;20.27;;
52724;SDS011;38621;52.830;6.914;2024-01-27T08:52:01;20.77;;;18.95;;
52724;SDS011;38621;52.830;6.914;2024-01-27T08:54:27;21.42;;;19.88;;
52724;SDS011;38621;52.830;6.914;2024-01-27T08:56:53;19.40;;;18.02;;
52724;SDS011;38621;52.830;6.914;2024-01-27T08:59:19;20.73;;;18.92;;
52724;SDS011;38621;52.830;6.914;2024-01-27T09:01:44;20.55;;;18.80;;
52724;SDS011;38621;52.830;6.914;2024-01-27T09:04:10;19.83;;;18.15;;
52724;SDS011;38621;52.830;6.914;2024-01-27T09:06:36;19.35;;;18.02;;
52724;SDS011;38621;52.830;6.914;2024-01-27T09:09:01;21.85;;;19.95;;
52724;SDS011;38621;52.830;6.914;2024-01-27T09:11:28;19.67;;;18.23;;
52724;SDS011;38621;52.830;6.914;2024-01-27T09:13:55;21.75;;;19.83;;
52724;SDS011;38621;52.830;6.914;2024-01-27T09:16:21;20.50;;;18.85;;
52724;SDS011;38621;52.830;6.914;2024-01-27T09:18:47;19.70;;;17.85;;
52724;SDS011;38621;52.830;6.914;2024-01-27T09:21:15;18.77;;;17.33;;
52724;SDS011;38621;52.830;6.914;2024-01-27T09:23:45;19.20;;;17.55;;
52724;SDS011;38621;52.830;6.914;2024-01-27T09:26:12;18.73;;;17.23;;
52724;SDS011;38621;52.830;6.914;2024-01-27T09:28:39;19.17;;;17.23;;
52724;SDS011;38621;52.830;6.914;2024-01-27T09:31:11;23.33;;;19.63;;
52724;SDS011;38621;52.830;6.914;2024-01-27T09:33:37;19.75;;;17.83;;
52724;SDS011;38621;52.830;6.914;2024-01-27T09:36:03;17.65;;;16.40;;
52724;SDS011;38621;52.830;6.914;2024-01-27T09:38:29;18.65;;;17.10;;
52724;SDS011;38621;52.830;6.914;2024-01-27T09:40:55;18.95;;;17.58;;
52724;SDS011;38621;52.830;6.914;2024-01-27T09:43:21;19.05;;;17.63;;
52724;SDS011;38621;52.830;6.914;2024-01-27T09:45:50;18.95;;;17.02;;
52724;SDS011;38621;52.830;6.914;2024-01-27T09:48:16;17.80;;;16.20;;
52724;SDS011;38621;52.830;6.914;2024-01-27T09:50:45;17.80;;;16.40;;
52724;SDS011;38621;52.830;6.914;2024-01-27T09:53:14;22.30;;;16.83;;
52724;SDS011;38621;52.830;6.914;2024-01-27T09:55:40;18.48;;;16.58;;
52724;SDS011;38621;52.830;6.914;2024-01-27T09:58:06;21.85;;;20.15;;
52724;SDS011;38621;52.830;6.914;2024-01-27T10:00:33;19.08;;;17.38;;
52724;SDS011;38621;52.830;6.914;2024-01-27T10:03:02;16.55;;;14.40;;
52724;SDS011;38621;52.830;6.914;2024-01-27T10:05:30;15.35;;;14.13;;
52724;SDS011;38621;52.830;6.914;2024-01-27T10:07:57;16.13;;;14.70;;
52724;SDS011;38621;52.830;6.914;2024-01-27T10:10:23;15.00;;;13.50;;
52724;SDS011;38621;52.830;6.914;2024-01-27T10:12:48;13.65;;;12.50;;
52724;SDS011;38621;52.830;6.914;2024-01-27T10:15:21;12.63;;;11.35;;
52724;SDS011;38621;52.830;6.914;2024-01-27T10:17:47;10.70;;;9.60;;
52724;SDS011;38621;52.830;6.914;2024-01-27T10:20:13;10.95;;;8.02;;
52724;SDS011;38621;52.830;6.914;2024-01-27T10:22:44;17.95;;;8.25;;
52724;SDS011;38621;52.830;6.914;2024-01-27T10:25:11;17.75;;;8.75;;
52724;SDS011;38621;52.830;6.914;2024-01-27T10:27:37;10.65;;;8.32;;
52724;SDS011;38621;52.830;6.914;2024-01-27T10:30:04;9.30;;;7.13;;
52724;SDS011;38621;52.830;6.914;2024-01-27T10:32:32;11.35;;;7.05;;
52724;SDS011;38621;52.830;6.914;2024-01-27T10:35:02;7.28;;;6.45;;
52724;SDS011;38621;52.830;6.914;2024-01-27T10:37:28;10.82;;;7.25;;
52724;SDS011;38621;52.830;6.914;2024-01-27T10:40:06;9.85;;;6.95;;
52724;SDS011;38621;52.830;6.914;2024-01-27T10:42:33;10.68;;;6.25;;
52724;SDS011;38621;52.830;6.914;2024-01-27T10:45:00;10.05;;;6.03;;
52724;SDS011;38621;52.830;6.914;2024-01-27T10:47:27;12.45;;;7.20;;
52724;SDS011;38621;52.830;6.914;2024-01-27T10:50:00;8.00;;;5.57;;
52724;SDS011;38621;52.830;6.914;2024-01-27T10:52:31;8.70;;;5.97;;
52724;SDS011;38621;52.830;6.914;2024-01-27T10:54:58;8.13;;;5.90;;
52724;SDS011;38621;52.830;6.914;2024-01-27T10:57:31;10.60;;;5.85;;
52724;SDS011;38621;52.830;6.914;2024-01-27T10:59:58;12.88;;;6.47;;
52724;SDS011;38621;52.830;6.914;2024-01-27T11:02:27;9.73;;;5.82;;
52724;SDS011;38621;52.830;6.914;2024-01-27T11:04:57;8.05;;;5.90;;
52724;SDS011;38621;52.830;6.914;2024-01-27T11:07:25;10.75;;;5.90;;
52724;SDS011;38621;52.830;6.914;2024-01-27T11:09:53;9.23;;;4.90;;
52724;SDS011;38621;52.830;6.914;2024-01-27T11:12:19;10.35;;;5.47;;
52724;SDS011;38621;52.830;6.914;2024-01-27T11:14:47;7.57;;;5.38;;
52724;SDS011;38621;52.830;6.914;2024-01-27T11:17:14;9.95;;;5.68;;
52724;SDS011;38621;52.830;6.914;2024-01-27T11:19:41;11.88;;;5.30;;
52724;SDS011;38621;52.830;6.914;2024-01-27T11:22:07;10.38;;;5.40;;
52724;SDS011;38621;52.830;6.914;2024-01-27T11:24:32;8.77;;;5.00;;
52724;SDS011;38621;52.830;6.914;2024-01-27T11:27:05;13.43;;;6.05;;
52724;SDS011;38621;52.830;6.914;2024-01-27T11:29:31;9.93;;;6.32;;
52724;SDS011;38621;52.830;6.914;2024-01-27T11:32:01;9.88;;;7.95;;
52724;SDS011;38621;52.830;6.914;2024-01-27T11:34:28;8.25;;;5.15;;
52724;SDS011;38621;52.830;6.914;2024-01-27T11:37:15;11.82;;;6.90;;
52724;SDS011;38621;52.830;6.914;2024-01-27T11:39:42;7.05;;;6.15;;
52724;SDS011;38621;52.830;6.914;2024-01-27T11:42:09;11.43;;;6.40;;
52724;SDS011;38621;52.830;6.914;2024-01-27T11:44:39;7.75;;;6.18;;
52724;SDS011;38621;52.830;6.914;2024-01-27T11:47:13;10.95;;;8.77;;
52724;SDS011;38621;52.830;6.914;2024-01-27T11:49:40;9.90;;;8.40;;
52724;SDS011;38621;52.830;6.914;2024-01-27T11:52:07;11.48;;;7.13;;
52724;SDS011;38621;52.830;6.914;2024-01-27T11:54:33;7.40;;;6.70;;
52724;SDS011;38621;52.830;6.914;2024-01-27T11:56:59;8.15;;;6.47;;
52724;SDS011;38621;52.830;6.914;2024-01-27T11:59:24;9.00;;;7.25;;
52724;SDS011;38621;52.830;6.914;2024-01-27T12:01:50;9.98;;;6.78;;
52724;SDS011;38621;52.830;6.914;2024-01-27T12:04:16;6.60;;;5.60;;
52724;SDS011;38621;52.830;6.914;2024-01-27T12:06:43;5.85;;;5.20;;
52724;SDS011;38621;52.830;6.914;2024-01-27T12:09:09;9.88;;;5.07;;
52724;SDS011;38621;52.830;6.914;2024-01-27T12:11:40;9.18;;;5.88;;
52724;SDS011;38621;52.830;6.914;2024-01-27T12:14:06;9.80;;;6.90;;
52724;SDS011;38621;52.830;6.914;2024-01-27T12:16:32;9.63;;;5.97;;
52724;SDS011;38621;52.830;6.914;2024-01-27T12:18:58;6.72;;;6.13;;
52724;SDS011;38621;52.830;6.914;2024-01-27T12:21:24;6.95;;;5.68;;
52724;SDS011;38621;52.830;6.914;2024-01-27T12:23:51;8.13;;;6.10;;
52724;SDS011;38621;52.830;6.914;2024-01-27T12:26:21;7.75;;;5.10;;
52724;SDS011;38621;52.830;6.914;2024-01-27T12:28:48;8.15;;;5.95;;
52724;SDS011;38621;52.830;6.914;2024-01-27T12:31:17;8.93;;;5.07;;
52724;SDS011;38621;52.830;6.914;2024-01-27T12:33:50;9.80;;;6.50;;
52724;SDS011;38621;52.830;6.914;2024-01-27T12:36:17;13.98;;;6.50;;
52724;SDS011;38621;52.830;6.914;2024-01-27T12:41:20;6.25;;;5.75;;
52724;SDS011;38621;52.830;6.914;2024-01-27T12:43:46;8.88;;;5.65;;
52724;SDS011;38621;52.830;6.914;2024-01-27T12:46:11;6.15;;;5.30;;
52724;SDS011;38621;52.830;6.914;2024-01-27T12:48:39;8.15;;;5.20;;
52724;SDS011;38621;52.830;6.914;2024-01-27T12:51:05;6.28;;;5.68;;
52724;SDS011;38621;52.830;6.914;2024-01-27T12:53:30;7.97;;;5.13;;
52724;SDS011;38621;52.830;6.914;2024-01-27T12:55:56;7.20;;;4.85;;
52724;SDS011;38621;52.830;6.914;2024-01-27T12:58:22;12.73;;;6.30;;
52724;SDS011;38621;52.830;6.914;2024-01-27T13:00:48;8.73;;;4.82;;
52724;SDS011;38621;52.830;6.914;2024-01-27T13:03:14;5.40;;;4.43;;
52724;SDS011;38621;52.830;6.914;2024-01-27T13:05:39;7.47;;;3.92;;
52724;SDS011;38621;52.830;6.914;2024-01-27T13:08:05;5.28;;;3.80;;
52724;SDS011;38621;52.830;6.914;2024-01-27T13:10:33;7.68;;;4.35;;
52724;SDS011;38621;52.830;6.914;2024-01-27T13:12:58;9.23;;;4.50;;
52724;SDS011;38621;52.830;6.914;2024-01-27T13:15:24;7.03;;;3.40;;
52724;SDS011;38621;52.830;6.914;2024-01-27T13:17:51;15.75;;;4.60;;
52724;SDS011;38621;52.830;6.914;2024-01-27T13:20:17;9.32;;;4.47;;
52724;SDS011;38621;52.830;6.914;2024-01-27T13:22:43;9.32;;;4.43;;
52724;SDS011;38621;52.830;6.914;2024-01-27T13:25:10;5.00;;;4.15;;
52724;SDS011;38621;52.830;6.914;2024-01-27T13:27:35;7.47;;;3.55;;
52724;SDS011;38621;52.830;6.914;2024-01-27T13:30:01;10.98;;;5.57;;
52724;SDS011;38621;52.830;6.914;2024-01-27T13:32:27;7.07;;;3.92;;
52724;SDS011;38621;52.830;6.914;2024-01-27T13:34:53;7.18;;;4.32;;
52724;SDS011;38621;52.830;6.914;2024-01-27T13:37:19;10.88;;;3.92;;
52724;SDS011;38621;52.830;6.914;2024-01-27T13:39:47;7.10;;;4.13;;
52724;SDS011;38621;52.830;6.914;2024-01-27T13:42:13;7.53;;;4.18;;
52724;SDS011;38621;52.830;6.914;2024-01-27T13:44:38;6.75;;;4.00;;
52724;SDS011;38621;52.830;6.914;2024-01-27T13:47:04;8.82;;;3.67;;
52724;SDS011;38621;52.830;6.914;2024-01-27T13:49:31;8.13;;;4.43;;
52724;SDS011;38621;52.830;6.914;2024-01-27T13:51:57;8.05;;;4.00;;
52724;SDS011;38621;52.830;6.914;2024-01-27T13:54:23;7.43;;;4.18;;
52724;SDS011;38621;52.830;6.914;2024-01-27T13:56:48;9.27;;;4.20;;
52724;SDS011;38621;52.830;6.914;2024-01-27T13:59:14;12.63;;;4.32;;
52724;SDS011;38621;52.830;6.914;2024-01-27T14:01:40;6.68;;;4.28;;
52724;SDS011;38621;52.830;6.914;2024-01-27T14:04:06;4.70;;;3.80;;
52724;SDS011;38621;52.830;6.914;2024-01-27T14:06:33;6.35;;;3.95;;
52724;SDS011;38621;52.830;6.914;2024-01-27T14:09:00;7.10;;;3.70;;
52724;SDS011;38621;52.830;6.914;2024-01-27T14:11:27;7.05;;;3.88;;
52724;SDS011;38621;52.830;6.914;2024-01-27T14:13:53;4.47;;;3.53;;
52724;SDS011;38621;52.830;6.914;2024-01-27T14:16:19;13.23;;;4.13;;
52724;SDS011;38621;52.830;6.914;2024-01-27T14:18:45;5.82;;;4.05;;
52724;SDS011;38621;52.830;6.914;2024-01-27T14:21:11;7.80;;;4.32;;
52724;SDS011;38621;52.830;6.914;2024-01-27T14:23:36;7.90;;;3.97;;
52724;SDS011;38621;52.830;6.914;2024-01-27T14:26:05;5.78;;;3.70;;